Time;durP1;ratioP1;P1;durP2;ratioP2;P2;SDS_P1;SDS_P2;PMS_P1;PMS_P2;Temp;Humidity;BMP_temperature;BMP_pressure;BME280_temperature;BME280_humidity;BME280_pressure;Samples;Min_cycle;Max_cycle;Signal;HPM_P1;HPM_P2
2021/12/11 00:00:14;;;;;;;;;;;0.80;99.90;;;;;;5088346;28;20371;-83
2021/12/11 00:02:41;;;;;;;;;;;0.80;99.90;;;;;;5082439;28;19935;-83
2021/12/11 00:05:08;;;;;;;;;;;0.80;99.90;;;;;;5082442;28;19946;-84
2021/12/11 00:07:35;;;;;;;;;;;0.80;99.90;;;;;;5081856;28;19924;-82
2021/12/11 00:10:07;;;;;;;;;;;0.90;99.90;;;;;;5081666;28;20015;-82
2021/12/11 00:12:36;;;;;;;;;;;0.80;99.90;;;;;;5083614;28;19928;-82
2021/12/11 00:15:05;;;;;;;;;;;0.80;99.90;;;;;;5082838;28;19925;-83
2021/12/11 00:17:33;;;;;;;;;;;0.00;99.90;;;;;;5081808;28;19925;-83
2021/12/11 00:20:00;;;;;;;;;;;0.80;99.90;;;;;;5081655;28;19937;-83
2021/12/11 00:22:28;;;;;;;;;;;0.80;99.90;;;;;;5082761;28;19924;-84
2021/12/11 00:24:58;;;;;;;;;;;0.70;99.90;;;;;;5082683;28;19971;-83
2021/12/11 00:27:25;;;;;;;;;;;0.60;99.90;;;;;;5082799;28;19936;-83
2021/12/11 00:29:52;;;;;;;;;;;0.70;99.90;;;;;;5083367;28;19932;-83
2021/12/11 00:32:24;;;;;;;;;;;0.80;99.90;;;;;;5081839;28;20332;-83
2021/12/11 00:34:51;;;;;;;;;;;0.50;99.90;;;;;;5081931;28;19924;-84
2021/12/11 00:37:20;;;;;;;;;;;0.70;99.90;;;;;;5081927;28;19947;-82
2021/12/11 00:39:48;;;;;;;;;;;0.70;99.90;;;;;;5080296;28;19960;-84
2021/12/11 00:42:15;;;;;;;;;;;0.60;99.90;;;;;;5080094;28;19929;-83
2021/12/11 00:44:42;;;;;;;;;;;-0.80;99.90;;;;;;5082661;28;19970;-83
2021/12/11 00:47:10;;;;;;;;;;;0.80;99.90;;;;;;5099440;28;19913;-82
2021/12/11 00:49:47;;;;;;;;;;;0.90;99.90;;;;;;5100675;28;19912;-82
2021/12/11 00:52:13;;;;;;;;;;;0.90;99.90;;;;;;5093437;28;19924;-82
2021/12/11 00:54:40;;;;;;;;;;;0.90;99.90;;;;;;5094229;28;19928;-83
2021/12/11 00:57:09;;;;;;;;;;;0.70;99.90;;;;;;5097566;28;19912;-83
2021/12/11 00:59:36;;;;;;;;;;;0.60;99.90;;;;;;5097994;28;19932;-81
2021/12/11 01:02:03;;;;;;;;;;;0.80;99.90;;;;;;5098075;28;19924;-82
2021/12/11 01:04:31;;;;;;;;;;;0.90;99.90;;;;;;5095650;28;19924;-83
2021/12/11 01:07:00;;;;;;;;;;;0.90;99.90;;;;;;5093481;28;19924;-84
2021/12/11 01:09:28;;;;;;;;;;;0.80;99.90;;;;;;5085171;28;19925;-84
2021/12/11 01:11:59;;;;;;;;;;;0.60;99.90;;;;;;5081860;28;19928;-83
2021/12/11 01:14:33;;;;;;;;;;;0.60;99.90;;;;;;5086969;28;19983;-84
2021/12/11 01:17:04;;;;;;;;;;;0.60;99.90;;;;;;5087416;28;19909;-83
2021/12/11 01:19:36;;;;;;;;;;;0.50;99.90;;;;;;5086324;28;20390;-82
2021/12/11 01:22:11;;;;;;;;;;;0.50;99.90;;;;;;5082410;28;19944;-83
2021/12/11 01:24:43;;;;;;;;;;;0.50;99.90;;;;;;5080471;28;20291;-82
2021/12/11 01:27:12;;;;;;;;;;;0.40;99.90;;;;;;5080362;28;19931;-83
2021/12/11 01:29:39;;;;;;;;;;;0.30;99.90;;;;;;5080465;28;19948;-83
2021/12/11 01:32:06;;;;;;;;;;;0.50;99.90;;;;;;5079483;28;19928;-83
2021/12/11 01:34:33;;;;;;;;;;;0.50;99.90;;;;;;5079962;28;19924;-83
2021/12/11 01:37:00;;;;;;;;;;;0.60;99.90;;;;;;5080728;28;19959;-83
2021/12/11 01:39:30;;;;;;;;;;;1.00;99.90;;;;;;5085570;28;19968;-82
2021/12/11 01:41:57;;;;;;;;;;;0.50;99.90;;;;;;5086252;28;20028;-82
2021/12/11 01:44:26;;;;;;;;;;;0.40;99.90;;;;;;5087875;28;20263;-82
2021/12/11 01:46:58;;;;;;;;;;;0.20;99.90;;;;;;5086839;28;19930;-84
2021/12/11 01:49:24;;;;;;;;;;;0.30;99.90;;;;;;5087264;28;19925;-83
2021/12/11 01:51:53;;;;;;;;;;;0.40;99.90;;;;;;5080168;28;20256;-84
2021/12/11 01:54:24;;;;;;;;;;;0.20;99.90;;;;;;5081149;28;20020;-83
2021/12/11 01:56:58;;;;;;;;;;;0.50;99.90;;;;;;5079978;28;19928;-83
2021/12/11 01:59:26;;;;;;;;;;;-0.40;99.90;;;;;;5078457;28;19928;-84
2021/12/11 02:01:54;;;;;;;;;;;0.10;99.90;;;;;;5078993;28;19963;-84
2021/12/11 02:04:23;;;;;;;;;;;0.30;99.90;;;;;;5078701;28;19928;-84
2021/12/11 02:06:52;;;;;;;;;;;-0.60;99.90;;;;;;5080415;28;20015;-83
2021/12/11 02:09:21;;;;;;;;;;;0.40;99.90;;;;;;5099037;28;20023;-83
2021/12/11 02:11:49;;;;;;;;;;;0.60;99.90;;;;;;5098726;28;19925;-83
2021/12/11 02:14:23;;;;;;;;;;;0.50;99.90;;;;;;5080843;28;19935;-83
2021/12/11 02:16:50;;;;;;;;;;;0.50;99.90;;;;;;5078482;28;20283;-83
2021/12/11 02:19:18;;;;;;;;;;;0.40;99.90;;;;;;5092972;28;19913;-82
2021/12/11 02:21:51;;;;;;;;;;;0.50;99.90;;;;;;5080410;28;19937;-83
2021/12/11 02:24:21;;;;;;;;;;;0.50;99.90;;;;;;5079800;28;20321;-83
2021/12/11 02:26:48;;;;;;;;;;;0.60;99.90;;;;;;5079343;28;19925;-83
2021/12/11 02:29:19;;;;;;;;;;;0.50;99.90;;;;;;5079153;28;19932;-83
2021/12/11 02:31:47;;;;;;;;;;;0.50;99.90;;;;;;5106220;22;19929;-87
2021/12/11 02:34:16;;;;;;;;;;;0.50;99.90;;;;;;5086273;28;19950;-88
2021/12/11 02:36:45;;;;;;;;;;;0.40;99.90;;;;;;5088371;28;19925;-88
2021/12/11 02:39:15;;;;;;;;;;;0.30;99.90;;;;;;5089568;28;19925;-87
2021/12/11 02:41:49;;;;;;;;;;;0.30;99.90;;;;;;5095953;28;19974;-88
2021/12/11 02:44:18;;;;;;;;;;;0.30;99.90;;;;;;5094511;28;19928;-87
2021/12/11 02:46:47;;;;;;;;;;;0.30;99.90;;;;;;5085279;28;19935;-87
2021/12/11 02:49:15;;;;;;;;;;;0.20;99.90;;;;;;5083162;28;19924;-87
2021/12/11 02:51:45;;;;;;;;;;;0.30;99.90;;;;;;5082395;28;19924;-86
2021/12/11 02:54:16;;;;;;;;;;;0.30;99.90;;;;;;5083924;28;19925;-87
2021/12/11 02:56:44;;;;;;;;;;;0.20;99.90;;;;;;5085599;28;19951;-88
2021/12/11 02:59:15;;;;;;;;;;;0.40;99.90;;;;;;5083488;28;19936;-86
2021/12/11 03:01:43;;;;;;;;;;;0.30;99.90;;;;;;5083928;28;19947;-87
2021/12/11 03:04:17;;;;;;;;;;;0.30;99.90;;;;;;5084167;28;19983;-86
2021/12/11 03:06:46;;;;;;;;;;;0.20;99.90;;;;;;5091417;28;19985;-87
2021/12/11 03:09:15;;;;;;;;;;;0.40;99.90;;;;;;5098946;28;19908;-86
2021/12/11 03:11:42;;;;;;;;;;;0.50;99.90;;;;;;5093674;28;19955;-87
2021/12/11 03:14:12;;;;;;;;;;;0.50;99.90;;;;;;5089706;28;19925;-87
2021/12/11 03:16:39;;;;;;;;;;;0.50;99.90;;;;;;5088859;28;19983;-86
2021/12/11 03:19:08;;;;;;;;;;;0.50;99.90;;;;;;5090776;28;19928;-86
2021/12/11 03:21:35;;;;;;;;;;;0.40;99.90;;;;;;5085119;28;19982;-88
2021/12/11 03:24:01;;;;;;;;;;;0.30;99.90;;;;;;5082522;28;19925;-88
2021/12/11 03:26:29;;;;;;;;;;;0.10;99.90;;;;;;5083394;28;19936;-87
2021/12/11 03:28:56;;;;;;;;;;;0.20;99.90;;;;;;5082129;28;20391;-87
2021/12/11 03:31:23;;;;;;;;;;;0.30;99.90;;;;;;5085002;28;19975;-87
2021/12/11 03:33:51;;;;;;;;;;;0.10;99.90;;;;;;5087371;28;19932;-87
2021/12/11 03:36:19;;;;;;;;;;;0.10;99.90;;;;;;5086427;28;19950;-88
2021/12/11 03:38:48;;;;;;;;;;;0.20;99.90;;;;;;5100824;28;19913;-86
2021/12/11 03:41:15;;;;;;;;;;;0.20;99.90;;;;;;5102271;28;19931;-86
2021/12/11 03:43:43;;;;;;;;;;;0.10;99.90;;;;;;5102328;28;19912;-85
2021/12/11 03:46:10;;;;;;;;;;;0.20;99.90;;;;;;5102234;28;19913;-86
2021/12/11 03:48:38;;;;;;;;;;;0.10;99.90;;;;;;5102287;28;19934;-86
2021/12/11 03:51:07;;;;;;;;;;;0.00;99.90;;;;;;5102057;28;19932;-86
2021/12/11 03:53:35;;;;;;;;;;;0.00;99.90;;;;;;5098510;28;21342;-86
2021/12/11 03:56:04;;;;;;;;;;;-0.10;99.90;;;;;;5088818;28;19946;-87
2021/12/11 03:58:31;;;;;;;;;;;-0.20;99.90;;;;;;5086778;28;19925;-87
2021/12/11 04:01:02;;;;;;;;;;;0.20;99.90;;;;;;5086425;28;19947;-87
2021/12/11 04:03:31;;;;;;;;;;;0.20;99.90;;;;;;5095679;28;19924;-88
2021/12/11 04:05:58;;;;;;;;;;;0.00;99.90;;;;;;5091384;28;19925;-88
2021/12/11 04:08:26;;;;;;;;;;;0.00;99.90;;;;;;5087265;28;19928;-86
2021/12/11 04:10:52;;;;;;;;;;;0.30;99.90;;;;;;5086837;28;19946;-86
2021/12/11 04:13:19;;;;;;;;;;;0.00;99.90;;;;;;5086904;28;19924;-87
2021/12/11 04:15:46;;;;;;;;;;;-0.40;99.90;;;;;;5086736;28;19929;-87
2021/12/11 04:18:14;;;;;;;;;;;0.30;99.90;;;;;;5085889;28;19974;-87
2021/12/11 04:20:42;;;;;;;;;;;0.30;99.90;;;;;;5099683;28;19947;-85
2021/12/11 04:23:11;;;;;;;;;;;0.30;99.90;;;;;;5099959;28;19925;-84
2021/12/11 04:25:38;;;;;;;;;;;0.20;99.90;;;;;;5101380;28;19936;-84
2021/12/11 04:28:05;;;;;;;;;;;0.30;99.90;;;;;;5101287;28;19940;-86
2021/12/11 04:30:32;;;;;;;;;;;0.80;99.90;;;;;;5098823;28;19947;-87
2021/12/11 04:32:59;;;;;;;;;;;0.40;99.90;;;;;;5091246;28;20374;-87
2021/12/11 04:35:29;;;;;;;;;;;0.40;99.90;;;;;;5094209;28;19964;-87
2021/12/11 04:37:56;;;;;;;;;;;0.50;99.90;;;;;;5089277;28;19931;-88
2021/12/11 04:40:24;;;;;;;;;;;0.50;99.90;;;;;;5086882;28;19974;-86
2021/12/11 04:42:56;;;;;;;;;;;0.50;99.90;;;;;;5087526;28;19931;-87
2021/12/11 04:45:25;;;;;;;;;;;-0.50;99.90;;;;;;5088732;28;19974;-87
2021/12/11 04:47:57;;;;;;;;;;;0.50;99.90;;;;;;5088720;28;19934;-87
2021/12/11 04:50:31;;;;;;;;;;;0.60;99.90;;;;;;5088665;28;19924;-86
2021/12/11 04:52:59;;;;;;;;;;;0.60;99.90;;;;;;5087978;28;19924;-86
2021/12/11 04:55:40;;;;;;;;;;;0.70;99.90;;;;;;5085728;28;19924;-87
2021/12/11 04:58:38;;;;;;;;;;;0.60;99.90;;;;;;5089926;28;19936;-86
2021/12/11 05:01:16;;;;;;;;;;;0.80;99.90;;;;;;5098236;28;19908;-86
2021/12/11 05:04:05;;;;;;;;;;;0.80;99.90;;;;;;5098741;28;19925;-88
2021/12/11 05:06:45;;;;;;;;;;;1.40;99.90;;;;;;5098299;28;19947;-88
2021/12/11 05:09:31;;;;;;;;;;;0.80;99.90;;;;;;5089244;28;19970;-86
2021/12/11 05:12:08;;;;;;;;;;;0.90;99.90;;;;;;5084252;28;19925;-87
2021/12/11 05:14:35;;;;;;;;;;;1.30;99.90;;;;;;5100559;28;19920;-86
2021/12/11 05:17:02;;;;;;;;;;;0.90;99.90;;;;;;5100475;28;19991;-86
2021/12/11 05:19:29;;;;;;;;;;;0.90;99.90;;;;;;5100472;28;19915;-86
2021/12/11 05:21:56;;;;;;;;;;;0.90;99.90;;;;;;5100147;28;19951;-87
2021/12/11 05:24:24;;;;;;;;;;;1.00;99.90;;;;;;5094179;28;19928;-86
2021/12/11 05:26:50;;;;;;;;;;;0.90;99.90;;;;;;5086191;28;19928;-88
2021/12/11 05:29:17;;;;;;;;;;;1.00;99.90;;;;;;5086482;28;19924;-88
2021/12/11 05:31:43;;;;;;;;;;;0.90;99.90;;;;;;5085329;28;19971;-88
2021/12/11 05:34:10;;;;;;;;;;;0.90;99.90;;;;;;5086709;28;19954;-87
2021/12/11 05:36:37;;;;;;;;;;;0.90;99.90;;;;;;5087686;28;19925;-87
2021/12/11 05:39:06;;;;;;;;;;;0.90;99.90;;;;;;5093790;28;19931;-88
2021/12/11 05:41:34;;;;;;;;;;;1.00;99.90;;;;;;5100127;28;19912;-85
2021/12/11 05:44:00;;;;;;;;;;;0.70;99.90;;;;;;5100424;28;19913;-85
2021/12/11 05:46:27;;;;;;;;;;;0.80;99.90;;;;;;5098853;28;20260;-86
2021/12/11 05:48:53;;;;;;;;;;;0.70;99.90;;;;;;5092923;28;19947;-85
2021/12/11 05:51:22;;;;;;;;;;;0.70;99.90;;;;;;5091639;28;19925;-87
2021/12/11 05:53:50;;;;;;;;;;;0.80;99.90;;;;;;5091455;28;19947;-87
2021/12/11 05:56:17;;;;;;;;;;;0.60;99.90;;;;;;5088580;28;19931;-87
2021/12/11 05:58:56;;;;;;;;;;;0.80;99.90;;;;;;5087776;28;19928;-86
2021/12/11 06:01:24;;;;;;;;;;;0.70;99.90;;;;;;5088194;28;19936;-87
2021/12/11 06:03:51;;;;;;;;;;;0.80;99.90;;;;;;5087536;28;20421;-86
2021/12/11 06:06:18;;;;;;;;;;;0.70;99.90;;;;;;5087862;28;19924;-87
2021/12/11 06:08:45;;;;;;;;;;;0.70;99.90;;;;;;5084776;28;19947;-87
2021/12/11 06:11:14;;;;;;;;;;;0.80;99.90;;;;;;5085001;28;19925;-86
2021/12/11 06:13:40;;;;;;;;;;;0.70;99.90;;;;;;5084756;28;19931;-87
2021/12/11 06:16:08;;;;;;;;;;;0.60;99.90;;;;;;5084987;28;19970;-87
2021/12/11 06:18:35;;;;;;;;;;;0.80;99.90;;;;;;5085797;28;19925;-86
2021/12/11 06:21:02;;;;;;;;;;;0.70;99.90;;;;;;5086260;28;19924;-87
2021/12/11 06:23:28;;;;;;;;;;;0.70;99.90;;;;;;5085140;28;19925;-87
2021/12/11 06:25:55;;;;;;;;;;;0.70;99.90;;;;;;5086179;28;19924;-87
2021/12/11 06:28:22;;;;;;;;;;;0.70;99.90;;;;;;5093266;28;19925;-86
2021/12/11 06:30:49;;;;;;;;;;;0.60;99.90;;;;;;5089782;28;19924;-87
2021/12/11 06:33:17;;;;;;;;;;;0.60;99.90;;;;;;5093769;28;19924;-86
2021/12/11 06:35:45;;;;;;;;;;;-0.50;99.90;;;;;;5089454;28;19924;-87
2021/12/11 06:38:16;;;;;;;;;;;0.60;99.90;;;;;;5085632;28;20299;-87
2021/12/11 06:40:43;;;;;;;;;;;;;;;;;;5085124;28;19970;-86
2021/12/11 06:43:09;;;;;;;;;;;0.60;99.90;;;;;;5085579;28;19924;-86
2021/12/11 06:45:37;;;;;;;;;;;0.50;99.90;;;;;;5086408;28;20280;-87
2021/12/11 06:48:04;;;;;;;;;;;0.70;99.90;;;;;;5085215;28;19925;-86
2021/12/11 06:50:32;;;;;;;;;;;0.60;99.90;;;;;;5084405;28;19931;-87
2021/12/11 06:53:00;;;;;;;;;;;0.50;99.90;;;;;;5085560;28;19978;-87
2021/12/11 06:55:26;;;;;;;;;;;0.50;99.90;;;;;;5097123;28;19913;-87
2021/12/11 06:57:53;;;;;;;;;;;0.50;99.90;;;;;;5098883;28;19912;-87
2021/12/11 07:00:20;;;;;;;;;;;0.60;99.90;;;;;;5098903;28;19931;-87
2021/12/11 07:02:47;;;;;;;;;;;0.70;99.90;;;;;;5094490;28;20343;-85
2021/12/11 07:05:14;;;;;;;;;;;0.60;99.90;;;;;;5096111;28;19925;-87
2021/12/11 07:07:43;;;;;;;;;;;0.50;99.90;;;;;;5097154;28;19924;-87
2021/12/11 07:10:11;;;;;;;;;;;0.60;99.90;;;;;;5095201;28;20009;-86
2021/12/11 07:12:38;;;;;;;;;;;0.60;99.90;;;;;;5097033;28;20398;-86
2021/12/11 07:15:05;;;;;;;;;;;0.50;99.90;;;;;;5101068;28;19938;-87
2021/12/11 07:17:32;;;;;;;;;;;0.50;99.90;;;;;;5096460;28;19925;-88
2021/12/11 07:19:59;;;;;;;;;;;0.70;99.90;;;;;;5094199;28;19935;-88
2021/12/11 07:22:25;;;;;;;;;;;-0.30;99.90;;;;;;5092553;28;19925;-88
2021/12/11 07:24:55;;;;;;;;;;;0.60;99.90;;;;;;5091338;28;19924;-86
2021/12/11 07:27:22;;;;;;;;;;;0.60;99.90;;;;;;5093307;28;19924;-87
2021/12/11 07:29:49;;;;;;;;;;;0.50;99.90;;;;;;5092914;28;19946;-88
2021/12/11 07:32:15;;;;;;;;;;;0.40;99.90;;;;;;5091602;28;19924;-87
2021/12/11 07:34:42;;;;;;;;;;;0.50;99.90;;;;;;5100375;28;19913;-85
2021/12/11 07:37:09;;;;;;;;;;;0.60;99.90;;;;;;5104284;28;19940;-87
2021/12/11 07:39:35;;;;;;;;;;;0.60;99.90;;;;;;5094919;28;19925;-87
2021/12/11 07:42:04;;;;;;;;;;;0.70;99.90;;;;;;5089575;28;19925;-87
2021/12/11 07:44:31;;;;;;;;;;;0.80;99.90;;;;;;5091022;28;19924;-87
2021/12/11 07:46:58;;;;;;;;;;;0.70;99.90;;;;;;5089594;28;20076;-88
2021/12/11 07:49:24;;;;;;;;;;;0.10;99.90;;;;;;5095804;28;19924;-85
2021/12/11 07:51:51;;;;;;;;;;;0.70;99.90;;;;;;5099962;28;19923;-85
2021/12/11 07:54:18;;;;;;;;;;;0.70;99.90;;;;;;5099943;28;19978;-87
2021/12/11 07:56:44;;;;;;;;;;;0.70;99.90;;;;;;5099545;28;19925;-85
2021/12/11 07:59:12;;;;;;;;;;;0.70;99.90;;;;;;5099533;28;19924;-86
2021/12/11 08:01:41;;;;;;;;;;;0.80;99.90;;;;;;5090983;28;19924;-87
2021/12/11 08:04:09;;;;;;;;;;;0.40;99.90;;;;;;5090562;28;20030;-87
2021/12/11 08:06:36;;;;;;;;;;;0.90;99.90;;;;;;5090843;28;19925;-86
2021/12/11 08:09:04;;;;;;;;;;;0.90;99.90;;;;;;5096757;28;19912;-87
2021/12/11 08:11:30;;;;;;;;;;;1.00;99.90;;;;;;5104773;28;19958;-86
2021/12/11 08:13:58;;;;;;;;;;;1.00;99.90;;;;;;5100126;28;19909;-87
2021/12/11 08:16:31;;;;;;;;;;;0.90;99.90;;;;;;5102907;28;19913;-85
2021/12/11 08:18:58;;;;;;;;;;;1.00;99.90;;;;;;5101538;28;19984;-85
2021/12/11 08:21:24;;;;;;;;;;;1.00;99.90;;;;;;5101107;28;19924;-85
2021/12/11 08:23:54;;;;;;;;;;;0.90;99.90;;;;;;5100828;28;19913;-86
2021/12/11 08:26:21;;;;;;;;;;;0.90;99.90;;;;;;5092443;28;19925;-87
2021/12/11 08:28:48;;;;;;;;;;;0.90;99.90;;;;;;5088665;28;19977;-87
2021/12/11 08:31:15;;;;;;;;;;;;;;;;;;5112707;22;19924;-78
2021/12/11 08:33:45;;;;;;;;;;;0.90;99.90;;;;;;5095429;28;19924;-79
2021/12/11 08:36:12;;;;;;;;;;;0.90;99.90;;;;;;5094461;28;19991;-80
2021/12/11 08:38:41;;;;;;;;;;;1.00;99.90;;;;;;5094945;28;19924;-81
2021/12/11 08:41:09;;;;;;;;;;;1.10;99.90;;;;;;5094240;28;19967;-81
2021/12/11 08:43:35;;;;;;;;;;;1.10;99.90;;;;;;5076536;28;19936;-81
2021/12/11 08:46:09;;;;;;;;;;;1.10;99.90;;;;;;5075436;28;19925;-82
2021/12/11 08:48:36;;;;;;;;;;;1.00;99.90;;;;;;5070792;28;19947;-82
2021/12/11 08:51:07;;;;;;;;;;;1.00;99.90;;;;;;5070863;28;19970;-81
2021/12/11 08:53:34;;;;;;;;;;;0.90;99.90;;;;;;5071588;28;19924;-81
2021/12/11 08:56:01;;;;;;;;;;;1.00;99.90;;;;;;5070351;28;19971;-82
2021/12/11 08:58:29;;;;;;;;;;;1.10;99.90;;;;;;5075278;28;19925;-83
2021/12/11 09:00:57;;;;;;;;;;;1.10;99.90;;;;;;5080108;28;19935;-82
2021/12/11 09:03:26;;;;;;;;;;;1.00;99.90;;;;;;5077485;28;19935;-82
2021/12/11 09:05:54;;;;;;;;;;;1.00;99.90;;;;;;5069609;28;19928;-83
2021/12/11 09:08:24;;;;;;;;;;;1.00;99.90;;;;;;5067311;28;19932;-81
2021/12/11 09:10:53;;;;;;;;;;;0.90;99.90;;;;;;5073715;28;19951;-79
2021/12/11 09:13:21;;;;;;;;;;;0.50;99.90;;;;;;5073255;28;19924;-81
2021/12/11 09:15:52;;;;;;;;;;;0.90;99.90;;;;;;5076472;28;19949;-81
2021/12/11 09:18:20;;;;;;;;;;;0.90;99.90;;;;;;5071345;28;19925;-81
2021/12/11 09:20:49;;;;;;;;;;;0.90;99.90;;;;;;5069354;28;19924;-82
2021/12/11 09:23:24;;;;;;;;;;;0.80;99.90;;;;;;5068788;28;19951;-80
2021/12/11 09:25:55;;;;;;;;;;;0.90;99.90;;;;;;5067298;28;20407;-81
2021/12/11 09:28:25;;;;;;;;;;;0.60;99.90;;;;;;5069025;28;20386;-81
2021/12/11 09:30:54;;;;;;;;;;;1.00;99.90;;;;;;5068705;28;19984;-81
2021/12/11 09:33:23;;;;;;;;;;;1.00;99.90;;;;;;5070749;28;19913;-82
2021/12/11 09:35:51;;;;;;;;;;;1.00;99.90;;;;;;5069936;28;19936;-81
2021/12/11 09:38:19;;;;;;;;;;;1.00;99.90;;;;;;5069336;28;19925;-82
2021/12/11 09:40:55;;;;;;;;;;;0.90;99.90;;;;;;5071797;28;19935;-83
2021/12/11 09:43:35;;;;;;;;;;;0.80;99.90;;;;;;5072485;28;19925;-82
2021/12/11 09:46:05;;;;;;;;;;;0.80;99.90;;;;;;5076197;28;19970;-84
2021/12/11 09:48:31;;;;;;;;;;;0.70;99.90;;;;;;5078742;28;19947;-83
2021/12/11 09:51:04;;;;;;;;;;;1.00;99.90;;;;;;5077752;28;19947;-83
2021/12/11 09:53:33;;;;;;;;;;;1.10;99.90;;;;;;5078144;28;19947;-83
2021/12/11 09:56:00;;;;;;;;;;;1.00;99.90;;;;;;5074284;28;19925;-83
2021/12/11 09:58:31;;;;;;;;;;;1.00;99.90;;;;;;5075401;28;19925;-82
2021/12/11 10:01:02;;;;;;;;;;;1.00;99.90;;;;;;5075815;28;19963;-83
2021/12/11 10:03:30;;;;;;;;;;;1.00;99.90;;;;;;5075282;28;19969;-83
2021/12/11 10:06:00;;;;;;;;;;;1.00;99.90;;;;;;5077731;28;19944;-83
2021/12/11 10:08:30;;;;;;;;;;;0.90;99.90;;;;;;5076548;28;19967;-82
2021/12/11 10:11:04;;;;;;;;;;;0.70;99.90;;;;;;5076333;28;19925;-82
2021/12/11 10:13:33;;;;;;;;;;;0.90;99.90;;;;;;5075452;28;20054;-83
2021/12/11 10:16:01;;;;;;;;;;;0.90;99.90;;;;;;5075142;28;19925;-82
2021/12/11 10:18:29;;;;;;;;;;;1.10;99.90;;;;;;5073929;28;19925;-82
2021/12/11 10:20:59;;;;;;;;;;;1.30;99.90;;;;;;5073333;28;19925;-82
2021/12/11 10:23:27;;;;;;;;;;;1.10;99.90;;;;;;5075845;28;19952;-84
2021/12/11 10:25:54;;;;;;;;;;;1.20;99.90;;;;;;5075696;28;19928;-83
2021/12/11 10:28:23;;;;;;;;;;;1.20;99.90;;;;;;5075016;28;19925;-82
2021/12/11 10:30:51;;;;;;;;;;;1.10;99.90;;;;;;5074192;28;19924;-83
2021/12/11 10:33:21;;;;;;;;;;;1.10;99.90;;;;;;5076587;28;19939;-82
2021/12/11 10:35:50;;;;;;;;;;;1.20;99.90;;;;;;5075468;28;19925;-82
2021/12/11 10:38:18;;;;;;;;;;;1.20;99.90;;;;;;5073593;28;19931;-83
2021/12/11 10:40:45;;;;;;;;;;;1.20;99.90;;;;;;5073899;28;19913;-82
2021/12/11 10:43:13;;;;;;;;;;;1.60;99.90;;;;;;5075764;28;19950;-81
2021/12/11 10:45:40;;;;;;;;;;;1.40;99.90;;;;;;5078247;28;19925;-81
2021/12/11 10:48:09;;;;;;;;;;;1.40;99.90;;;;;;5077775;28;19995;-83
2021/12/11 10:50:38;;;;;;;;;;;1.50;99.90;;;;;;5072913;28;19947;-82
2021/12/11 10:53:06;;;;;;;;;;;1.50;99.90;;;;;;5070883;28;19933;-82
2021/12/11 10:55:34;;;;;;;;;;;1.50;99.90;;;;;;5071543;28;19929;-82
2021/12/11 10:58:02;;;;;;;;;;;1.50;99.90;;;;;;5070461;28;19932;-83
2021/12/11 11:00:30;;;;;;;;;;;1.40;99.90;;;;;;5069855;28;19925;-82
2021/12/11 11:02:57;;;;;;;;;;;1.40;99.90;;;;;;5072801;28;19913;-82
2021/12/11 11:05:25;;;;;;;;;;;1.40;99.90;;;;;;5075260;28;19925;-82
2021/12/11 11:07:53;;;;;;;;;;;1.40;99.90;;;;;;5075772;28;20367;-82
2021/12/11 11:10:21;;;;;;;;;;;1.40;99.90;;;;;;5076296;28;19932;-83
2021/12/11 11:12:49;;;;;;;;;;;1.30;99.90;;;;;;5074333;28;19925;-83
2021/12/11 11:15:17;;;;;;;;;;;1.20;99.90;;;;;;5077449;28;19928;-81
2021/12/11 11:17:43;;;;;;;;;;;1.30;99.90;;;;;;5078093;28;19929;-81
2021/12/11 11:20:13;;;;;;;;;;;1.40;99.90;;;;;;5070498;28;20364;-83
2021/12/11 11:22:41;;;;;;;;;;;1.30;99.90;;;;;;5071670;28;19925;-83
2021/12/11 11:25:10;;;;;;;;;;;1.30;99.90;;;;;;5075339;28;19925;-81
2021/12/11 11:27:38;;;;;;;;;;;1.20;99.90;;;;;;5074814;28;19951;-82
2021/12/11 11:30:08;;;;;;;;;;;1.10;99.90;;;;;;5074842;28;19923;-82
2021/12/11 11:32:35;;;;;;;;;;;1.20;99.90;;;;;;5074351;28;20334;-82
2021/12/11 11:35:03;;;;;;;;;;;1.10;99.90;;;;;;5070011;28;19925;-82
2021/12/11 11:37:32;;;;;;;;;;;1.10;99.90;;;;;;5068969;28;19953;-83
2021/12/11 11:39:58;;;;;;;;;;;1.20;99.90;;;;;;5069476;28;19952;-82
2021/12/11 11:42:26;;;;;;;;;;;1.20;99.90;;;;;;5070824;28;20005;-83
2021/12/11 11:44:55;;;;;;;;;;;1.10;99.90;;;;;;5070065;28;19937;-83
2021/12/11 11:47:21;;;;;;;;;;;1.20;99.90;;;;;;5071806;28;19924;-82
2021/12/11 11:49:55;;;;;;;;;;;1.30;99.90;;;;;;5074056;28;19913;-83
2021/12/11 11:52:22;;;;;;;;;;;1.10;99.90;;;;;;5076585;28;19924;-83
2021/12/11 11:54:50;;;;;;;;;;;1.10;99.90;;;;;;5077849;28;19936;-81
2021/12/11 11:57:18;;;;;;;;;;;1.30;99.90;;;;;;5080565;28;19913;-83
2021/12/11 11:59:47;;;;;;;;;;;1.30;99.90;;;;;;5080838;28;19913;-83
2021/12/11 12:02:17;;;;;;;;;;;1.20;99.90;;;;;;5080138;28;19979;-83
2021/12/11 12:04:44;;;;;;;;;;;1.20;99.90;;;;;;5080145;28;19925;-82
2021/12/11 12:07:11;;;;;;;;;;;1.00;99.90;;;;;;5080203;28;19924;-82
2021/12/11 12:09:39;;;;;;;;;;;1.10;99.90;;;;;;5076939;28;19955;-83
2021/12/11 12:12:08;;;;;;;;;;;1.10;99.90;;;;;;5078121;28;19924;-83
2021/12/11 12:14:35;;;;;;;;;;;1.10;99.90;;;;;;5077436;28;19952;-85
2021/12/11 12:17:03;;;;;;;;;;;1.30;99.90;;;;;;5076871;28;19932;-83
2021/12/11 12:19:32;;;;;;;;;;;1.10;99.90;;;;;;5075900;28;19925;-83
2021/12/11 12:22:03;;;;;;;;;;;1.10;99.90;;;;;;5076384;28;19924;-84
2021/12/11 12:24:32;;;;;;;;;;;1.10;99.90;;;;;;5072842;28;19935;-84
2021/12/11 12:26:59;;;;;;;;;;;1.10;99.90;;;;;;5071535;28;19924;-84
2021/12/11 12:29:27;;;;;;;;;;;0.80;99.90;;;;;;5072758;28;19975;-83
2021/12/11 12:31:56;;;;;;;;;;;1.20;99.90;;;;;;5073563;28;19951;-83
2021/12/11 12:34:25;;;;;;;;;;;1.30;99.90;;;;;;5073148;28;19925;-84
2021/12/11 12:36:52;;;;;;;;;;;1.10;99.90;;;;;;5069457;28;19925;-85
2021/12/11 12:39:21;;;;;;;;;;;1.30;99.90;;;;;;5063326;28;19925;-85
2021/12/11 12:41:53;;;;;;;;;;;1.10;99.90;;;;;;5064049;28;19932;-84
2021/12/11 12:44:21;;;;;;;;;;;1.10;99.90;;;;;;5063841;28;19925;-84
2021/12/11 12:46:50;;;;;;;;;;;1.30;99.90;;;;;;5063144;28;20039;-84
2021/12/11 12:49:17;;;;;;;;;;;1.30;99.90;;;;;;5062781;28;19978;-84
2021/12/11 12:51:47;;;;;;;;;;;1.30;99.90;;;;;;5063584;28;20395;-84
2021/12/11 12:54:15;;;;;;;;;;;1.00;99.90;;;;;;5066366;28;19935;-84
2021/12/11 12:56:43;;;;;;;;;;;1.20;99.90;;;;;;5072326;28;19954;-85
2021/12/11 12:59:11;;;;;;;;;;;0.30;99.90;;;;;;5073924;28;19925;-84
2021/12/11 13:01:40;;;;;;;;;;;1.10;99.90;;;;;;5074515;28;20104;-84
2021/12/11 13:04:08;;;;;;;;;;;1.30;99.90;;;;;;5073942;28;19971;-84
2021/12/11 13:06:41;;;;;;;;;;;1.30;99.90;;;;;;5074636;28;19951;-83
2021/12/11 13:09:11;;;;;;;;;;;1.30;99.90;;;;;;5075947;28;19932;-83
2021/12/11 13:11:39;;;;;;;;;;;1.30;99.90;;;;;;5075808;28;20265;-84
2021/12/11 13:14:06;;;;;;;;;;;1.30;99.90;;;;;;5076314;28;19925;-84
2021/12/11 13:16:34;;;;;;;;;;;1.30;99.90;;;;;;5076934;28;19913;-83
2021/12/11 13:19:02;;;;;;;;;;;1.40;99.90;;;;;;5078588;28;19947;-82
2021/12/11 13:21:33;;;;;;;;;;;1.20;99.90;;;;;;5078787;28;19935;-81
2021/12/11 13:24:00;;;;;;;;;;;1.20;99.90;;;;;;5079629;28;19936;-84
2021/12/11 13:26:31;;;;;;;;;;;1.30;99.90;;;;;;5079593;28;19929;-84
2021/12/11 13:28:59;;;;;;;;;;;1.30;99.90;;;;;;5079757;28;19913;-83
2021/12/11 13:31:27;;;;;;;;;;;1.30;99.90;;;;;;5079210;28;19944;-84
2021/12/11 13:33:54;;;;;;;;;;;;;;;;;;5076418;28;19925;-81
2021/12/11 13:36:22;;;;;;;;;;;1.20;99.90;;;;;;5071446;28;19924;-82
2021/12/11 13:38:49;;;;;;;;;;;1.20;99.90;;;;;;5075917;28;19925;-82
2021/12/11 13:41:17;;;;;;;;;;;1.30;99.90;;;;;;5077908;28;19925;-83
2021/12/11 13:43:45;;;;;;;;;;;1.30;99.90;;;;;;5078294;28;19925;-83
2021/12/11 13:46:12;;;;;;;;;;;1.30;99.90;;;;;;5074714;28;19925;-84
2021/12/11 13:48:41;;;;;;;;;;;1.20;99.90;;;;;;5069714;28;20062;-83
2021/12/11 13:51:09;;;;;;;;;;;1.40;99.90;;;;;;5067759;28;19925;-83
2021/12/11 13:53:37;;;;;;;;;;;1.30;99.90;;;;;;5066689;28;19935;-82
2021/12/11 13:56:05;;;;;;;;;;;1.10;99.90;;;;;;5066958;28;19987;-83
2021/12/11 13:58:32;;;;;;;;;;;1.10;99.90;;;;;;5073940;28;19996;-82
2021/12/11 14:01:01;;;;;;;;;;;1.00;99.90;;;;;;5077750;28;20035;-83
2021/12/11 14:03:29;;;;;;;;;;;0.90;99.90;;;;;;5072299;28;19934;-84
2021/12/11 14:05:59;;;;;;;;;;;1.10;99.90;;;;;;5071464;28;19924;-82
2021/12/11 14:08:26;;;;;;;;;;;1.00;99.90;;;;;;5072014;28;19925;-82
2021/12/11 14:10:53;;;;;;;;;;;1.10;99.90;;;;;;5069510;28;20279;-83
2021/12/11 14:13:20;;;;;;;;;;;1.10;99.90;;;;;;5074248;28;19940;-83
2021/12/11 14:15:48;;;;;;;;;;;1.10;99.90;;;;;;5076869;28;19957;-83
2021/12/11 14:18:17;;;;;;;;;;;1.10;99.90;;;;;;5075256;28;19929;-83
2021/12/11 14:20:44;;;;;;;;;;;1.40;99.90;;;;;;5066473;28;19925;-83
2021/12/11 14:23:12;;;;;;;;;;;1.10;99.90;;;;;;5066921;28;19931;-83
2021/12/11 14:25:39;;;;;;;;;;;1.00;99.90;;;;;;5067961;28;19924;-82
2021/12/11 14:28:06;;;;;;;;;;;1.30;99.90;;;;;;5068283;28;19924;-83
2021/12/11 14:30:33;;;;;;;;;;;1.10;99.90;;;;;;5070161;28;19925;-82
2021/12/11 14:33:01;;;;;;;;;;;1.10;99.90;;;;;;5096316;22;19924;-85
2021/12/11 14:35:30;;;;;;;;;;;2.50;99.90;;;;;;5095590;28;19924;-83
2021/12/11 14:37:57;;;;;;;;;;;1.00;99.90;;;;;;5094932;28;19924;-85